createdAt,value
2023-03-03T03:13:40.373Z,100.00
2023-03-03T03:16:43.337Z,100.00
2023-03-03T03:19:45.961Z,100.00
2023-03-03T03:22:48.742Z,100.00
2023-03-03T03:25:51.486Z,100.00
2023-03-03T03:28:55.892Z,100.00
2023-03-03T03:31:58.566Z,100.00
2023-03-03T03:35:01.330Z,100.00
2023-03-03T03:38:04.273Z,100.00
2023-03-03T03:41:07.965Z,100.00
2023-03-03T03:44:12.197Z,100.00
2023-03-03T03:47:14.787Z,100.00
2023-03-03T03:50:17.508Z,100.00
2023-03-03T03:53:20.491Z,100.00
2023-03-03T03:56:23.087Z,100.00
2023-03-03T03:59:27.033Z,100.00
2023-03-03T04:02:29.829Z,100.00
2023-03-03T04:05:32.491Z,100.00
2023-03-03T04:08:35.094Z,100.00
2023-03-03T04:11:37.695Z,100.00
2023-03-03T04:14:41.720Z,100.00
2023-03-03T04:17:44.424Z,100.00
2023-03-03T04:20:47.051Z,100.00
2023-03-03T04:23:49.655Z,100.00
2023-03-03T04:26:52.251Z,100.00
2023-03-03T04:29:56.173Z,100.00
2023-03-03T04:32:58.889Z,100.00
2023-03-03T04:36:01.464Z,100.00
2023-03-03T04:39:04.292Z,100.00
2023-03-03T04:42:07.065Z,100.00
2023-03-03T04:45:12.390Z,100.00
2023-03-03T04:48:15.247Z,100.00
2023-03-03T04:51:18.656Z,100.00
2023-03-03T04:54:21.285Z,100.00
2023-03-03T04:57:23.886Z,100.00
2023-03-03T05:00:27.886Z,100.00
2023-03-03T05:03:30.563Z,100.00
2023-03-03T05:06:33.257Z,100.00
2023-03-03T05:09:35.918Z,100.00
2023-03-03T05:12:38.550Z,100.00
2023-03-03T05:15:43.449Z,100.00
2023-03-03T05:18:46.539Z,100.00
2023-03-03T05:21:49.140Z,100.00
2023-03-03T05:24:51.778Z,100.00
2023-03-03T05:27:54.891Z,100.00
2023-03-03T05:30:58.848Z,100.00
2023-03-03T05:34:01.433Z,100.00
2023-03-03T05:37:06.690Z,100.00
2023-03-03T05:40:10.737Z,100.00
2023-03-03T05:43:13.330Z,100.00
2023-03-03T05:46:17.333Z,100.00
2023-03-03T05:49:19.935Z,100.00
2023-03-03T05:52:24.208Z,100.00
2023-03-03T05:55:26.832Z,100.00
2023-03-03T05:58:29.435Z,100.00
2023-03-03T06:01:33.790Z,100.00
2023-03-03T06:04:36.435Z,100.00
2023-03-03T06:07:39.023Z,100.00
2023-03-03T06:10:41.621Z,100.00
2023-03-03T06:13:44.226Z,100.00
2023-03-03T06:16:48.303Z,100.00
2023-03-03T06:19:50.987Z,100.00
2023-03-03T06:22:53.635Z,100.00
2023-03-03T06:25:56.325Z,100.00
2023-03-03T06:28:59.668Z,100.00
2023-03-03T06:32:03.994Z,100.00
2023-03-03T06:35:07.551Z,100.00
2023-03-03T06:38:10.143Z,100.00
2023-03-03T06:41:13.107Z,100.00
2023-03-03T06:44:15.749Z,100.00
2023-03-03T06:47:19.673Z,100.00
2023-03-03T06:50:22.414Z,100.00
2023-03-03T06:53:26.496Z,100.00
2023-03-03T06:56:29.605Z,100.00
2023-03-03T06:59:32.201Z,100.00
2023-03-03T07:02:36.130Z,100.00
2023-03-03T07:05:38.741Z,100.00
2023-03-03T07:08:41.686Z,100.00
2023-03-03T07:11:46.542Z,100.00
2023-03-03T07:14:55.481Z,100.00
2023-03-03T07:17:59.690Z,100.00
2023-03-03T07:21:14.297Z,100.00
2023-03-03T07:24:27.095Z,100.00
2023-03-03T07:27:32.129Z,100.00
2023-03-03T07:30:34.747Z,100.00
2023-03-03T07:33:44.739Z,100.00
2023-03-03T07:36:47.401Z,100.00
2023-03-03T07:39:51.645Z,100.00
2023-03-03T07:42:54.238Z,100.00
2023-03-03T07:46:02.759Z,100.00
2023-03-03T07:49:21.536Z,100.00
2023-03-03T07:52:30.612Z,100.00
2023-03-03T07:55:37.244Z,100.00
2023-03-03T07:58:41.911Z,100.00
2023-03-03T08:01:49.302Z,100.00
2023-03-03T08:04:54.753Z,100.00
2023-03-03T08:08:13.219Z,100.00
2023-03-03T08:11:15.870Z,100.00
2023-03-03T08:14:26.507Z,100.00
2023-03-03T08:17:37.729Z,100.00
2023-03-03T08:20:46.343Z,100.00
2023-03-03T08:23:51.498Z,100.00
2023-03-03T08:26:54.074Z,100.00
2023-03-03T08:29:56.706Z,100.00
2023-03-03T08:32:59.364Z,100.00
2023-03-03T08:36:03.368Z,100.00
2023-03-03T08:39:06.449Z,100.00
2023-03-03T08:42:09.020Z,100.00
2023-03-03T08:45:11.641Z,100.00
2023-03-03T08:48:15.034Z,100.00
2023-03-03T08:51:19.117Z,100.00
2023-03-03T08:54:21.684Z,100.00
2023-03-03T08:57:24.394Z,100.00
2023-03-03T09:00:27.517Z,100.00
2023-03-03T09:03:30.809Z,100.00
2023-03-03T09:06:34.797Z,100.00
2023-03-03T09:09:38.647Z,100.00
2023-03-03T09:12:44.046Z,100.00
2023-03-03T09:15:49.180Z,100.00
2023-03-03T09:18:51.876Z,100.00
2023-03-03T09:21:57.527Z,100.00
2023-03-03T09:25:00.723Z,100.00
2023-03-03T09:28:04.233Z,100.00
2023-03-03T09:31:23.194Z,100.00
2023-03-03T09:34:32.164Z,100.00
2023-03-03T09:37:40.388Z,100.00
2023-03-03T09:40:56.154Z,100.00
2023-03-03T09:44:17.205Z,100.00
2023-03-03T09:47:48.110Z,100.00
2023-03-03T09:51:04.220Z,100.00
2023-03-03T09:54:18.846Z,100.00
2023-03-03T09:57:30.505Z,100.00
2023-03-03T10:00:42.982Z,100.00
2023-03-03T10:04:17.094Z,100.00
2023-03-03T10:07:28.638Z,100.00
2023-03-03T10:10:50.054Z,100.00
2023-03-03T10:14:19.780Z,100.00
2023-03-03T10:17:38.289Z,100.00
2023-03-03T10:20:58.459Z,100.00
2023-03-03T10:24:15.601Z,100.00
2023-03-03T10:27:37.806Z,100.00
2023-03-03T10:31:04.664Z,100.00
2023-03-03T10:34:22.168Z,100.00
2023-03-03T10:37:31.839Z,100.00
2023-03-03T10:40:38.662Z,100.00
2023-03-03T10:43:59.833Z,100.00
2023-03-03T10:47:35.595Z,100.00
2023-03-03T10:50:51.461Z,100.00
2023-03-03T10:54:07.735Z,100.00
2023-03-03T10:57:19.796Z,100.00
2023-03-03T11:00:27.645Z,100.00
2023-03-03T11:04:08.720Z,100.00
2023-03-03T11:07:20.807Z,100.00
2023-03-03T11:10:37.994Z,100.00
2023-03-03T11:13:46.993Z,100.00
2023-03-03T11:17:02.518Z,100.00
2023-03-03T11:20:10.689Z,100.00
2023-03-03T11:23:30.674Z,100.00
2023-03-03T11:26:44.523Z,100.00
2023-03-03T11:30:10.096Z,100.00
2023-03-03T11:33:21.744Z,100.00
2023-03-03T11:36:29.943Z,100.00
2023-03-03T11:39:32.615Z,100.00
2023-03-03T11:42:47.956Z,100.00
2023-03-03T11:45:56.286Z,100.00
2023-03-03T11:49:06.008Z,100.00
2023-03-03T11:52:21.475Z,100.00
2023-03-03T11:55:31.487Z,100.00
2023-03-03T11:58:43.662Z,100.00
2023-03-03T12:01:53.394Z,100.00
2023-03-03T12:05:01.079Z,100.00
2023-03-03T12:08:16.505Z,100.00
2023-03-03T12:11:25.548Z,100.00
2023-03-03T12:14:42.831Z,100.00
2023-03-03T12:18:17.061Z,100.00
2023-03-03T12:21:41.416Z,100.00
2023-03-03T12:24:58.102Z,100.00
2023-03-03T12:28:07.262Z,100.00
2023-03-03T12:31:22.641Z,100.00
2023-03-03T12:34:35.437Z,100.00
2023-03-03T12:37:50.723Z,100.00
2023-03-03T12:41:01.704Z,100.00
2023-03-03T12:44:09.329Z,100.00
2023-03-03T12:47:19.912Z,100.00
2023-03-03T12:50:33.572Z,100.00
2023-03-03T12:53:52.203Z,100.00
2023-03-03T12:56:56.519Z,96.40
2023-03-03T13:00:22.984Z,90.36
2023-03-03T13:03:53.300Z,86.99
2023-03-03T13:07:05.667Z,87.95
2023-03-03T13:10:19.421Z,87.92
2023-03-03T13:13:28.666Z,86.39
2023-03-03T13:16:41.482Z,90.65
2023-03-03T13:19:50.401Z,91.28
2023-03-03T13:22:59.202Z,92.27
2023-03-03T13:26:08.861Z,90.89
2023-03-03T13:29:20.432Z,90.35
2023-03-03T13:32:24.924Z,92.67
2023-03-03T13:35:38.783Z,92.65
2023-03-03T13:38:44.025Z,91.55
2023-03-03T13:41:56.900Z,91.48
2023-03-03T13:45:02.893Z,91.88
2023-03-03T13:48:16.200Z,93.06
2023-03-03T13:51:27.652Z,93.41
2023-03-03T13:55:01.142Z,94.10
2023-03-03T13:58:12.665Z,94.50
2023-03-03T14:01:21.865Z,93.90
2023-03-03T14:04:33.870Z,91.66
2023-03-03T14:07:42.480Z,92.30
2023-03-03T14:10:50.124Z,90.22
2023-03-03T14:14:03.642Z,89.13
2023-03-03T14:17:16.759Z,88.28
2023-03-03T14:20:25.054Z,86.96
2023-03-03T14:23:35.815Z,87.04
2023-03-03T14:26:49.350Z,85.28
2023-03-03T14:29:53.336Z,86.87
2023-03-03T14:33:06.490Z,85.97
2023-03-03T14:36:15.912Z,88.00
2023-03-03T14:39:31.574Z,88.08
2023-03-03T14:42:38.062Z,87.48
2023-03-03T14:45:43.066Z,87.29
2023-03-03T14:48:52.165Z,87.18
2023-03-03T14:51:54.885Z,86.29
2023-03-03T14:55:00.362Z,85.71
2023-03-03T14:58:04.101Z,85.08
2023-03-03T15:01:22.112Z,85.19
2023-03-03T15:04:26.546Z,84.59
2023-03-03T15:07:34.330Z,85.62
2023-03-03T15:10:38.482Z,85.93
2023-03-03T15:13:41.128Z,85.92
2023-03-03T15:16:45.442Z,85.03
2023-03-03T15:20:19.860Z,85.87
2023-03-03T15:23:38.383Z,85.89
2023-03-03T15:26:48.258Z,85.73
2023-03-03T15:30:02.680Z,85.88
2023-03-03T15:33:20.620Z,85.82
2023-03-03T15:36:32.134Z,85.50
2023-03-03T15:39:44.393Z,85.91
2023-03-03T15:42:50.363Z,84.89
2023-03-03T15:46:03.439Z,86.34
2023-03-03T15:49:21.410Z,84.87
2023-03-03T15:52:38.120Z,86.27
2023-03-03T15:55:53.736Z,86.18
2023-03-03T15:59:23.433Z,86.33
2023-03-03T16:02:33.987Z,86.16
2023-03-03T16:05:45.777Z,86.93
2023-03-03T16:09:00.159Z,87.19
2023-03-03T16:12:13.427Z,87.95
2023-03-03T16:15:50.632Z,87.38
2023-03-03T16:19:04.428Z,87.86
2023-03-03T16:22:47.986Z,88.05
2023-03-03T16:26:07.621Z,87.72
2023-03-03T16:29:33.359Z,88.55
2023-03-03T16:32:42.605Z,88.14
2023-03-03T16:35:53.211Z,87.76
2023-03-03T16:39:04.710Z,87.65
2023-03-03T16:42:16.017Z,88.19
2023-03-03T16:45:23.968Z,88.73
2023-03-03T16:48:43.739Z,87.72
2023-03-03T16:51:51.213Z,88.14
2023-03-03T16:54:58.272Z,87.53
2023-03-03T16:58:15.607Z,87.59
2023-03-03T17:01:27.894Z,88.09
2023-03-03T17:04:40.874Z,87.66
2023-03-03T17:07:45.688Z,88.03
2023-03-03T17:10:56.413Z,86.81
2023-03-03T17:14:13.959Z,87.66
2023-03-03T17:17:27.478Z,88.58
2023-03-03T17:20:36.403Z,89.22
2023-03-03T17:23:50.665Z,89.89
2023-03-03T17:27:06.905Z,89.55
2023-03-03T17:30:17.921Z,89.16
2023-03-03T17:33:36.627Z,90.22
2023-03-03T17:36:51.073Z,90.48
2023-03-03T17:40:18.829Z,92.06
2023-03-03T17:43:26.672Z,91.54
2023-03-03T17:46:35.406Z,91.92
2023-03-03T17:49:52.483Z,91.63
2023-03-03T17:53:08.246Z,92.74
2023-03-03T17:56:19.458Z,92.13
2023-03-03T17:59:41.474Z,92.21
2023-03-03T18:03:19.722Z,91.18
2023-03-03T18:06:39.720Z,91.44
2023-03-03T18:09:59.915Z,92.64
2023-03-03T18:13:10.029Z,93.12
2023-03-03T18:16:25.908Z,92.49
2023-03-03T18:19:49.004Z,92.50
2023-03-03T18:22:53.491Z,92.14
2023-03-03T18:25:58.684Z,92.28
2023-03-03T18:29:20.966Z,92.48
2023-03-03T18:32:25.290Z,91.29
2023-03-03T18:35:32.395Z,92.39
2023-03-03T18:38:41.625Z,90.85
2023-03-03T18:42:09.366Z,91.71
2023-03-03T18:45:53.587Z,92.06
2023-03-03T18:49:01.666Z,92.04
2023-03-03T18:52:21.045Z,91.61
2023-03-03T18:55:26.987Z,92.01
2023-03-03T18:58:35.834Z,91.58
2023-03-03T19:01:44.963Z,92.90
2023-03-03T19:04:55.432Z,93.33
2023-03-03T19:08:00.692Z,93.93
2023-03-03T19:11:04.352Z,93.87
2023-03-03T19:14:25.546Z,93.85
2023-03-03T19:17:50.568Z,95.11
2023-03-03T19:21:00.823Z,94.96
2023-03-03T19:24:04.845Z,95.21
2023-03-03T19:27:32.084Z,95.83
2023-03-03T19:30:46.079Z,96.43
2023-03-03T19:33:57.024Z,96.65
2023-03-03T19:37:14.652Z,96.10
2023-03-03T19:40:26.029Z,97.60
2023-03-03T19:43:39.382Z,98.07
2023-03-03T19:46:55.828Z,97.55
2023-03-03T19:50:18.276Z,97.55
2023-03-03T19:53:32.068Z,98.81
2023-03-03T19:56:41.426Z,99.07
2023-03-03T19:59:50.348Z,99.35
2023-03-03T20:03:12.804Z,99.93
2023-03-03T20:06:32.824Z,100.00
2023-03-03T20:09:46.123Z,99.83
2023-03-03T20:13:03.645Z,100.00
2023-03-03T20:16:17.772Z,100.00
2023-03-03T20:19:37.665Z,100.00
2023-03-03T20:22:48.016Z,100.00
2023-03-03T20:25:56.848Z,100.00
2023-03-03T20:29:33.709Z,100.00
2023-03-03T20:32:59.145Z,100.00
2023-03-03T20:36:11.692Z,100.00
2023-03-03T20:39:22.520Z,100.00
2023-03-03T20:42:38.831Z,100.00
2023-03-03T20:45:55.266Z,100.00
2023-03-03T20:49:20.898Z,100.00
2023-03-03T20:52:32.895Z,100.00
2023-03-03T20:55:43.680Z,100.00
2023-03-03T20:59:05.882Z,100.00
2023-03-03T21:02:18.918Z,100.00
2023-03-03T21:05:23.186Z,100.00
2023-03-03T21:08:44.726Z,100.00
2023-03-03T21:11:47.428Z,100.00
2023-03-03T21:15:00.854Z,100.00
2023-03-03T21:18:21.973Z,100.00
2023-03-03T21:21:24.673Z,100.00
2023-03-03T21:24:49.115Z,100.00
2023-03-03T21:27:51.751Z,100.00
2023-03-03T21:31:10.820Z,100.00
2023-03-03T21:34:28.056Z,100.00
2023-03-03T21:37:45.985Z,100.00
2023-03-03T21:41:00.486Z,100.00
2023-03-03T21:44:03.108Z,100.00
2023-03-03T21:47:08.741Z,100.00
2023-03-03T21:50:12.425Z,100.00
2023-03-03T21:53:15.011Z,100.00
2023-03-03T21:56:17.625Z,100.00
2023-03-03T21:59:20.587Z,100.00
2023-03-03T22:02:24.563Z,100.00
2023-03-03T22:05:27.120Z,100.00
2023-03-03T22:08:29.918Z,100.00
2023-03-03T22:11:32.703Z,100.00
2023-03-03T22:14:35.539Z,100.00
2023-03-03T22:17:40.660Z,100.00
2023-03-03T22:20:43.239Z,100.00
2023-03-03T22:23:45.825Z,100.00
2023-03-03T22:26:48.440Z,100.00
2023-03-03T22:29:51.007Z,100.00
2023-03-03T22:32:55.242Z,100.00
2023-03-03T22:35:57.909Z,100.00
2023-03-03T22:39:00.893Z,100.00
2023-03-03T22:42:03.595Z,100.00
2023-03-03T22:45:07.108Z,100.00
2023-03-03T22:48:11.622Z,100.00
2023-03-03T22:51:14.195Z,100.00
2023-03-03T22:54:16.782Z,100.00
2023-03-03T22:57:19.419Z,100.00
2023-03-03T23:00:22.541Z,100.00
2023-03-03T23:03:26.558Z,100.00
2023-03-03T23:06:29.293Z,100.00
2023-03-03T23:09:31.917Z,100.00
2023-03-03T23:12:34.560Z,100.00
2023-03-03T23:15:37.256Z,100.00
2023-03-03T23:18:41.208Z,100.00
2023-03-03T23:21:43.817Z,100.00
2023-03-03T23:24:46.428Z,100.00
2023-03-03T23:27:49.017Z,100.00
2023-03-03T23:30:52.401Z,100.00
2023-03-03T23:33:56.706Z,100.00
2023-03-03T23:36:59.429Z,100.00
2023-03-03T23:40:02.055Z,100.00
2023-03-03T23:43:04.644Z,100.00
2023-03-03T23:46:07.239Z,100.00
2023-03-03T23:49:11.171Z,100.00
2023-03-03T23:52:13.742Z,100.00
2023-03-03T23:55:16.653Z,100.00
2023-03-03T23:58:19.319Z,100.00
